sensor_id;sensor_type;location;lat;lon;timestamp;P1;durP1;ratioP1;P2;durP2;ratioP2
3959;SDS011;1994;48.640;8.894;2023-07-24T00:02:08;4.40;;;3.60;;
3959;SDS011;1994;48.640;8.894;2023-07-24T00:04:34;5.53;;;4.20;;
3959;SDS011;1994;48.640;8.894;2023-07-24T00:07:00;4.20;;;3.73;;
3959;SDS011;1994;48.640;8.894;2023-07-24T00:09:25;7.30;;;3.93;;
3959;SDS011;1994;48.640;8.894;2023-07-24T00:11:51;5.23;;;4.20;;
3959;SDS011;1994;48.640;8.894;2023-07-24T00:14:17;7.30;;;4.37;;
3959;SDS011;1994;48.640;8.894;2023-07-24T00:16:43;4.67;;;4.17;;
3959;SDS011;1994;48.640;8.894;2023-07-24T00:19:08;4.60;;;4.20;;
3959;SDS011;1994;48.640;8.894;2023-07-24T00:21:34;4.07;;;3.67;;
3959;SDS011;1994;48.640;8.894;2023-07-24T00:24:00;6.37;;;4.70;;
3959;SDS011;1994;48.640;8.894;2023-07-24T00:26:26;6.20;;;4.17;;
3959;SDS011;1994;48.640;8.894;2023-07-24T00:28:51;4.90;;;3.80;;
3959;SDS011;1994;48.640;8.894;2023-07-24T00:31:17;7.80;;;4.40;;
3959;SDS011;1994;48.640;8.894;2023-07-24T00:33:43;9.13;;;4.80;;
3959;SDS011;1994;48.640;8.894;2023-07-24T00:36:09;6.90;;;4.80;;
3959;SDS011;1994;48.640;8.894;2023-07-24T00:38:34;6.17;;;4.70;;
3959;SDS011;1994;48.640;8.894;2023-07-24T00:41:00;8.33;;;4.53;;
3959;SDS011;1994;48.640;8.894;2023-07-24T00:43:26;5.70;;;4.60;;
3959;SDS011;1994;48.640;8.894;2023-07-24T00:45:51;5.17;;;4.10;;
3959;SDS011;1994;48.640;8.894;2023-07-24T00:48:18;6.30;;;4.50;;
3959;SDS011;1994;48.640;8.894;2023-07-24T00:50:44;6.73;;;3.80;;
3959;SDS011;1994;48.640;8.894;2023-07-24T00:53:11;3.83;;;3.40;;
3959;SDS011;1994;48.640;8.894;2023-07-24T00:55:38;4.00;;;3.70;;
3959;SDS011;1994;48.640;8.894;2023-07-24T00:58:04;4.47;;;4.07;;
3959;SDS011;1994;48.640;8.894;2023-07-24T01:00:31;5.33;;;4.33;;
3959;SDS011;1994;48.640;8.894;2023-07-24T01:02:56;4.67;;;3.80;;
3959;SDS011;1994;48.640;8.894;2023-07-24T01:05:24;4.70;;;4.10;;
3959;SDS011;1994;48.640;8.894;2023-07-24T01:07:51;4.83;;;4.23;;
3959;SDS011;1994;48.640;8.894;2023-07-24T01:10:17;5.40;;;4.90;;
3959;SDS011;1994;48.640;8.894;2023-07-24T01:15:41;6.10;;;4.20;;
3959;SDS011;1994;48.640;8.894;2023-07-24T01:18:10;6.33;;;4.03;;
3959;SDS011;1994;48.640;8.894;2023-07-24T01:20:42;4.70;;;4.20;;
3959;SDS011;1994;48.640;8.894;2023-07-24T01:26:11;4.50;;;4.03;;
3959;SDS011;1994;48.640;8.894;2023-07-24T01:28:37;5.97;;;4.33;;
3959;SDS011;1994;48.640;8.894;2023-07-24T01:31:04;8.30;;;4.00;;
3959;SDS011;1994;48.640;8.894;2023-07-24T01:33:30;8.23;;;4.80;;
3959;SDS011;1994;48.640;8.894;2023-07-24T01:35:59;6.13;;;3.80;;
3959;SDS011;1994;48.640;8.894;2023-07-24T01:38:27;5.30;;;4.40;;
3959;SDS011;1994;48.640;8.894;2023-07-24T01:40:56;4.80;;;4.17;;
3959;SDS011;1994;48.640;8.894;2023-07-24T01:43:22;6.17;;;4.40;;
3959;SDS011;1994;48.640;8.894;2023-07-24T01:45:52;5.57;;;4.43;;
3959;SDS011;1994;48.640;8.894;2023-07-24T01:48:18;6.13;;;4.33;;
3959;SDS011;1994;48.640;8.894;2023-07-24T01:50:43;5.07;;;4.30;;
3959;SDS011;1994;48.640;8.894;2023-07-24T01:53:09;5.53;;;4.07;;
3959;SDS011;1994;48.640;8.894;2023-07-24T01:55:35;5.70;;;4.23;;
3959;SDS011;1994;48.640;8.894;2023-07-24T01:58:01;5.07;;;4.40;;
3959;SDS011;1994;48.640;8.894;2023-07-24T02:00:27;5.60;;;4.77;;
3959;SDS011;1994;48.640;8.894;2023-07-24T02:02:52;4.53;;;3.67;;
3959;SDS011;1994;48.640;8.894;2023-07-24T02:05:18;6.70;;;4.40;;
3959;SDS011;1994;48.640;8.894;2023-07-24T02:07:44;7.37;;;4.47;;
3959;SDS011;1994;48.640;8.894;2023-07-24T02:10:09;4.17;;;3.67;;
3959;SDS011;1994;48.640;8.894;2023-07-24T02:12:35;5.13;;;4.63;;
3959;SDS011;1994;48.640;8.894;2023-07-24T02:15:01;4.77;;;3.93;;
3959;SDS011;1994;48.640;8.894;2023-07-24T02:17:27;4.83;;;4.33;;
3959;SDS011;1994;48.640;8.894;2023-07-24T02:19:52;9.17;;;4.50;;
3959;SDS011;1994;48.640;8.894;2023-07-24T02:22:18;6.17;;;3.87;;
3959;SDS011;1994;48.640;8.894;2023-07-24T02:24:44;5.13;;;4.33;;
3959;SDS011;1994;48.640;8.894;2023-07-24T02:27:11;6.00;;;4.37;;
3959;SDS011;1994;48.640;8.894;2023-07-24T02:29:49;5.67;;;4.30;;
3959;SDS011;1994;48.640;8.894;2023-07-24T02:32:14;6.53;;;4.30;;
3959;SDS011;1994;48.640;8.894;2023-07-24T02:34:40;5.47;;;4.50;;
3959;SDS011;1994;48.640;8.894;2023-07-24T02:37:06;7.93;;;4.50;;
3959;SDS011;1994;48.640;8.894;2023-07-24T02:39:31;5.83;;;4.57;;
3959;SDS011;1994;48.640;8.894;2023-07-24T02:41:57;6.17;;;4.20;;
3959;SDS011;1994;48.640;8.894;2023-07-24T02:44:23;5.30;;;4.60;;
3959;SDS011;1994;48.640;8.894;2023-07-24T02:46:48;6.47;;;4.80;;
3959;SDS011;1994;48.640;8.894;2023-07-24T02:49:14;6.30;;;5.00;;
3959;SDS011;1994;48.640;8.894;2023-07-24T02:51:40;5.50;;;4.80;;
3959;SDS011;1994;48.640;8.894;2023-07-24T02:54:05;5.07;;;3.63;;
3959;SDS011;1994;48.640;8.894;2023-07-24T02:56:31;5.43;;;4.50;;
3959;SDS011;1994;48.640;8.894;2023-07-24T02:58:57;6.30;;;4.53;;
3959;SDS011;1994;48.640;8.894;2023-07-24T03:01:23;5.33;;;4.63;;
3959;SDS011;1994;48.640;8.894;2023-07-24T03:03:48;6.13;;;4.93;;
3959;SDS011;1994;48.640;8.894;2023-07-24T03:06:14;7.10;;;4.53;;
3959;SDS011;1994;48.640;8.894;2023-07-24T03:08:40;4.37;;;3.50;;
3959;SDS011;1994;48.640;8.894;2023-07-24T03:11:07;6.53;;;5.20;;
3959;SDS011;1994;48.640;8.894;2023-07-24T03:13:33;4.80;;;4.30;;
3959;SDS011;1994;48.640;8.894;2023-07-24T03:15:58;5.67;;;5.00;;
3959;SDS011;1994;48.640;8.894;2023-07-24T03:18:24;5.73;;;4.73;;
3959;SDS011;1994;48.640;8.894;2023-07-24T03:20:50;6.40;;;4.80;;
3959;SDS011;1994;48.640;8.894;2023-07-24T03:23:16;7.43;;;4.90;;
3959;SDS011;1994;48.640;8.894;2023-07-24T03:25:42;6.40;;;4.10;;
3959;SDS011;1994;48.640;8.894;2023-07-24T03:28:08;7.20;;;5.00;;
3959;SDS011;1994;48.640;8.894;2023-07-24T03:30:34;5.00;;;4.47;;
3959;SDS011;1994;48.640;8.894;2023-07-24T03:33:00;5.93;;;4.83;;
3959;SDS011;1994;48.640;8.894;2023-07-24T03:35:27;6.10;;;4.70;;
3959;SDS011;1994;48.640;8.894;2023-07-24T03:37:52;5.40;;;4.00;;
3959;SDS011;1994;48.640;8.894;2023-07-24T03:40:18;5.03;;;4.20;;
3959;SDS011;1994;48.640;8.894;2023-07-24T03:42:44;7.23;;;4.20;;
3959;SDS011;1994;48.640;8.894;2023-07-24T03:45:09;5.10;;;4.10;;
3959;SDS011;1994;48.640;8.894;2023-07-24T03:47:35;6.00;;;4.33;;
3959;SDS011;1994;48.640;8.894;2023-07-24T03:50:01;5.20;;;4.50;;
3959;SDS011;1994;48.640;8.894;2023-07-24T03:52:26;6.03;;;5.20;;
3959;SDS011;1994;48.640;8.894;2023-07-24T03:54:52;5.07;;;3.87;;
3959;SDS011;1994;48.640;8.894;2023-07-24T03:57:18;6.67;;;4.40;;
3959;SDS011;1994;48.640;8.894;2023-07-24T03:59:44;6.60;;;5.33;;
3959;SDS011;1994;48.640;8.894;2023-07-24T04:02:10;6.13;;;4.63;;
3959;SDS011;1994;48.640;8.894;2023-07-24T04:04:36;4.90;;;4.40;;
3959;SDS011;1994;48.640;8.894;2023-07-24T04:07:03;4.63;;;4.20;;
3959;SDS011;1994;48.640;8.894;2023-07-24T04:09:29;6.03;;;4.83;;
3959;SDS011;1994;48.640;8.894;2023-07-24T04:11:55;5.90;;;4.77;;
3959;SDS011;1994;48.640;8.894;2023-07-24T04:14:21;6.53;;;4.83;;
3959;SDS011;1994;48.640;8.894;2023-07-24T04:16:46;8.03;;;4.83;;
3959;SDS011;1994;48.640;8.894;2023-07-24T04:19:12;5.33;;;4.03;;
3959;SDS011;1994;48.640;8.894;2023-07-24T04:21:38;5.43;;;3.80;;
3959;SDS011;1994;48.640;8.894;2023-07-24T04:24:04;5.10;;;4.50;;
3959;SDS011;1994;48.640;8.894;2023-07-24T04:26:30;5.93;;;4.07;;
3959;SDS011;1994;48.640;8.894;2023-07-24T04:28:56;4.37;;;3.90;;
3959;SDS011;1994;48.640;8.894;2023-07-24T04:31:21;5.93;;;4.13;;
3959;SDS011;1994;48.640;8.894;2023-07-24T04:33:47;5.47;;;4.93;;
3959;SDS011;1994;48.640;8.894;2023-07-24T04:36:13;6.33;;;4.50;;
3959;SDS011;1994;48.640;8.894;2023-07-24T04:38:38;6.57;;;4.87;;
3959;SDS011;1994;48.640;8.894;2023-07-24T04:41:04;10.97;;;4.43;;
3959;SDS011;1994;48.640;8.894;2023-07-24T04:43:30;7.50;;;4.50;;
3959;SDS011;1994;48.640;8.894;2023-07-24T04:45:56;9.33;;;4.80;;
3959;SDS011;1994;48.640;8.894;2023-07-24T04:48:21;5.13;;;4.53;;
3959;SDS011;1994;48.640;8.894;2023-07-24T04:50:52;7.47;;;4.60;;
3959;SDS011;1994;48.640;8.894;2023-07-24T04:53:20;5.13;;;4.60;;
3959;SDS011;1994;48.640;8.894;2023-07-24T04:55:46;8.17;;;5.10;;
3959;SDS011;1994;48.640;8.894;2023-07-24T04:58:12;5.80;;;4.80;;
3959;SDS011;1994;48.640;8.894;2023-07-24T05:00:37;6.23;;;4.70;;
3959;SDS011;1994;48.640;8.894;2023-07-24T05:03:03;7.97;;;4.87;;
3959;SDS011;1994;48.640;8.894;2023-07-24T05:05:30;7.30;;;4.17;;
3959;SDS011;1994;48.640;8.894;2023-07-24T05:07:56;5.50;;;5.00;;
3959;SDS011;1994;48.640;8.894;2023-07-24T05:10:22;5.97;;;5.03;;
3959;SDS011;1994;48.640;8.894;2023-07-24T05:12:48;4.47;;;3.77;;
3959;SDS011;1994;48.640;8.894;2023-07-24T05:15:13;5.30;;;3.83;;
3959;SDS011;1994;48.640;8.894;2023-07-24T05:17:41;4.93;;;3.83;;
3959;SDS011;1994;48.640;8.894;2023-07-24T05:20:08;6.50;;;4.20;;
3959;SDS011;1994;48.640;8.894;2023-07-24T05:22:35;12.87;;;4.60;;
3959;SDS011;1994;48.640;8.894;2023-07-24T05:25:01;4.93;;;3.80;;
3959;SDS011;1994;48.640;8.894;2023-07-24T05:27:26;6.23;;;4.23;;
3959;SDS011;1994;48.640;8.894;2023-07-24T05:29:52;6.33;;;4.40;;
3959;SDS011;1994;48.640;8.894;2023-07-24T05:32:18;4.70;;;4.30;;
3959;SDS011;1994;48.640;8.894;2023-07-24T05:34:43;8.17;;;4.43;;
3959;SDS011;1994;48.640;8.894;2023-07-24T05:37:09;12.90;;;5.40;;
3959;SDS011;1994;48.640;8.894;2023-07-24T05:39:35;8.53;;;5.50;;
3959;SDS011;1994;48.640;8.894;2023-07-24T05:42:01;6.97;;;4.73;;
3959;SDS011;1994;48.640;8.894;2023-07-24T05:44:27;7.47;;;5.03;;
3959;SDS011;1994;48.640;8.894;2023-07-24T05:46:53;5.40;;;3.90;;
3959;SDS011;1994;48.640;8.894;2023-07-24T05:49:18;8.17;;;4.90;;
3959;SDS011;1994;48.640;8.894;2023-07-24T05:51:44;4.70;;;4.10;;
3959;SDS011;1994;48.640;8.894;2023-07-24T05:54:10;8.90;;;5.17;;
3959;SDS011;1994;48.640;8.894;2023-07-24T05:56:35;4.67;;;4.20;;
3959;SDS011;1994;48.640;8.894;2023-07-24T05:59:01;5.43;;;4.57;;
3959;SDS011;1994;48.640;8.894;2023-07-24T06:01:27;6.43;;;5.17;;
3959;SDS011;1994;48.640;8.894;2023-07-24T06:03:52;6.20;;;4.93;;
3959;SDS011;1994;48.640;8.894;2023-07-24T06:06:18;5.10;;;4.60;;
3959;SDS011;1994;48.640;8.894;2023-07-24T06:08:44;7.23;;;5.13;;
3959;SDS011;1994;48.640;8.894;2023-07-24T06:11:12;5.67;;;4.60;;
3959;SDS011;1994;48.640;8.894;2023-07-24T06:13:37;7.20;;;4.30;;
3959;SDS011;1994;48.640;8.894;2023-07-24T06:16:03;8.33;;;4.87;;
3959;SDS011;1994;48.640;8.894;2023-07-24T06:18:29;6.67;;;4.33;;
3959;SDS011;1994;48.640;8.894;2023-07-24T06:20:55;7.47;;;5.33;;
3959;SDS011;1994;48.640;8.894;2023-07-24T06:23:20;8.53;;;5.33;;
3959;SDS011;1994;48.640;8.894;2023-07-24T06:25:46;5.87;;;4.90;;
3959;SDS011;1994;48.640;8.894;2023-07-24T06:28:12;12.70;;;5.33;;
3959;SDS011;1994;48.640;8.894;2023-07-24T06:30:38;8.33;;;5.77;;
3959;SDS011;1994;48.640;8.894;2023-07-24T06:33:04;7.37;;;5.23;;
3959;SDS011;1994;48.640;8.894;2023-07-24T06:35:29;7.47;;;4.93;;
3959;SDS011;1994;48.640;8.894;2023-07-24T06:37:56;7.50;;;5.30;;
3959;SDS011;1994;48.640;8.894;2023-07-24T06:40:21;4.80;;;4.17;;
3959;SDS011;1994;48.640;8.894;2023-07-24T06:42:47;7.67;;;5.10;;
3959;SDS011;1994;48.640;8.894;2023-07-24T06:45:13;7.30;;;5.00;;
3959;SDS011;1994;48.640;8.894;2023-07-24T06:47:39;7.87;;;5.50;;
3959;SDS011;1994;48.640;8.894;2023-07-24T06:50:04;11.20;;;5.67;;
3959;SDS011;1994;48.640;8.894;2023-07-24T06:52:31;5.97;;;4.23;;
3959;SDS011;1994;48.640;8.894;2023-07-24T06:54:57;6.90;;;5.00;;
3959;SDS011;1994;48.640;8.894;2023-07-24T06:57:24;13.93;;;4.80;;
3959;SDS011;1994;48.640;8.894;2023-07-24T06:59:50;9.53;;;5.10;;
3959;SDS011;1994;48.640;8.894;2023-07-24T07:02:16;5.67;;;4.43;;
3959;SDS011;1994;48.640;8.894;2023-07-24T07:04:42;8.00;;;5.40;;
3959;SDS011;1994;48.640;8.894;2023-07-24T07:07:07;8.57;;;6.30;;
3959;SDS011;1994;48.640;8.894;2023-07-24T07:09:33;7.77;;;5.03;;
3959;SDS011;1994;48.640;8.894;2023-07-24T07:11:59;8.80;;;5.43;;
3959;SDS011;1994;48.640;8.894;2023-07-24T07:14:24;6.73;;;5.23;;
3959;SDS011;1994;48.640;8.894;2023-07-24T07:16:50;14.83;;;4.60;;
3959;SDS011;1994;48.640;8.894;2023-07-24T07:19:16;9.43;;;4.97;;
3959;SDS011;1994;48.640;8.894;2023-07-24T07:21:42;6.23;;;5.57;;
3959;SDS011;1994;48.640;8.894;2023-07-24T07:24:07;10.20;;;4.80;;
3959;SDS011;1994;48.640;8.894;2023-07-24T07:26:33;7.93;;;5.03;;
3959;SDS011;1994;48.640;8.894;2023-07-24T07:28:59;7.20;;;5.10;;
3959;SDS011;1994;48.640;8.894;2023-07-24T07:31:24;10.23;;;6.47;;
3959;SDS011;1994;48.640;8.894;2023-07-24T07:33:50;7.63;;;5.13;;
3959;SDS011;1994;48.640;8.894;2023-07-24T07:36:16;5.53;;;4.67;;
3959;SDS011;1994;48.640;8.894;2023-07-24T07:38:42;11.60;;;5.93;;
3959;SDS011;1994;48.640;8.894;2023-07-24T07:41:08;7.40;;;5.23;;
3959;SDS011;1994;48.640;8.894;2023-07-24T07:43:34;6.13;;;4.43;;
3959;SDS011;1994;48.640;8.894;2023-07-24T07:46:01;7.57;;;5.67;;
3959;SDS011;1994;48.640;8.894;2023-07-24T07:48:28;8.03;;;6.00;;
3959;SDS011;1994;48.640;8.894;2023-07-24T07:50:54;8.83;;;5.10;;
3959;SDS011;1994;48.640;8.894;2023-07-24T07:53:19;8.60;;;5.53;;
3959;SDS011;1994;48.640;8.894;2023-07-24T07:55:45;5.10;;;4.37;;
3959;SDS011;1994;48.640;8.894;2023-07-24T07:58:11;7.60;;;5.23;;
3959;SDS011;1994;48.640;8.894;2023-07-24T08:00:37;6.87;;;5.90;;
3959;SDS011;1994;48.640;8.894;2023-07-24T08:03:05;4.60;;;3.77;;
3959;SDS011;1994;48.640;8.894;2023-07-24T08:05:31;5.67;;;3.80;;
3959;SDS011;1994;48.640;8.894;2023-07-24T08:07:57;4.03;;;3.73;;
3959;SDS011;1994;48.640;8.894;2023-07-24T08:10:23;5.67;;;3.53;;
3959;SDS011;1994;48.640;8.894;2023-07-24T08:12:49;4.03;;;3.40;;
3959;SDS011;1994;48.640;8.894;2023-07-24T08:15:15;4.20;;;3.60;;
3959;SDS011;1994;48.640;8.894;2023-07-24T08:17:40;7.10;;;3.30;;
3959;SDS011;1994;48.640;8.894;2023-07-24T08:20:06;5.50;;;3.83;;
3959;SDS011;1994;48.640;8.894;2023-07-24T08:22:32;4.93;;;3.80;;
3959;SDS011;1994;48.640;8.894;2023-07-24T08:24:58;5.83;;;3.47;;
3959;SDS011;1994;48.640;8.894;2023-07-24T08:27:24;4.97;;;3.93;;
3959;SDS011;1994;48.640;8.894;2023-07-24T08:29:52;4.33;;;3.70;;
3959;SDS011;1994;48.640;8.894;2023-07-24T08:32:18;4.60;;;3.63;;
3959;SDS011;1994;48.640;8.894;2023-07-24T08:34:45;3.20;;;2.90;;
3959;SDS011;1994;48.640;8.894;2023-07-24T08:37:13;3.60;;;3.10;;
3959;SDS011;1994;48.640;8.894;2023-07-24T08:39:39;5.37;;;3.77;;
3959;SDS011;1994;48.640;8.894;2023-07-24T08:42:12;3.50;;;3.03;;
3959;SDS011;1994;48.640;8.894;2023-07-24T08:44:38;3.60;;;3.27;;
3959;SDS011;1994;48.640;8.894;2023-07-24T08:47:05;3.53;;;3.23;;
3959;SDS011;1994;48.640;8.894;2023-07-24T08:49:38;5.80;;;4.10;;
3959;SDS011;1994;48.640;8.894;2023-07-24T08:52:07;3.90;;;3.50;;
3959;SDS011;1994;48.640;8.894;2023-07-24T08:54:37;3.83;;;3.40;;
3959;SDS011;1994;48.640;8.894;2023-07-24T08:57:06;5.10;;;3.40;;
3959;SDS011;1994;48.640;8.894;2023-07-24T08:59:33;3.73;;;2.80;;
3959;SDS011;1994;48.640;8.894;2023-07-24T09:01:59;4.07;;;3.60;;
3959;SDS011;1994;48.640;8.894;2023-07-24T09:04:25;3.93;;;3.03;;
3959;SDS011;1994;48.640;8.894;2023-07-24T09:06:52;3.80;;;3.40;;
3959;SDS011;1994;48.640;8.894;2023-07-24T09:09:21;5.37;;;3.60;;
3959;SDS011;1994;48.640;8.894;2023-07-24T09:11:48;3.40;;;2.97;;
3959;SDS011;1994;48.640;8.894;2023-07-24T09:14:27;3.90;;;3.50;;
3959;SDS011;1994;48.640;8.894;2023-07-24T09:17:05;5.27;;;4.40;;
3959;SDS011;1994;48.640;8.894;2023-07-24T09:19:33;3.80;;;3.43;;
3959;SDS011;1994;48.640;8.894;2023-07-24T09:22:12;5.50;;;4.27;;
3959;SDS011;1994;48.640;8.894;2023-07-24T09:24:53;3.83;;;3.40;;
3959;SDS011;1994;48.640;8.894;2023-07-24T09:27:20;5.77;;;3.47;;
3959;SDS011;1994;48.640;8.894;2023-07-24T09:29:51;7.13;;;4.57;;
3959;SDS011;1994;48.640;8.894;2023-07-24T09:32:24;4.93;;;3.80;;
3959;SDS011;1994;48.640;8.894;2023-07-24T09:34:52;8.63;;;4.00;;
3959;SDS011;1994;48.640;8.894;2023-07-24T09:39:56;5.43;;;4.83;;
3959;SDS011;1994;48.640;8.894;2023-07-24T09:42:40;4.53;;;4.13;;
3959;SDS011;1994;48.640;8.894;2023-07-24T09:45:06;4.27;;;3.87;;
3959;SDS011;1994;48.640;8.894;2023-07-24T09:47:33;5.03;;;4.07;;
3959;SDS011;1994;48.640;8.894;2023-07-24T09:50:00;5.20;;;4.20;;
3959;SDS011;1994;48.640;8.894;2023-07-24T09:52:29;4.20;;;3.80;;
3959;SDS011;1994;48.640;8.894;2023-07-24T09:55:08;5.07;;;4.57;;
3959;SDS011;1994;48.640;8.894;2023-07-24T09:57:39;4.27;;;3.50;;
3959;SDS011;1994;48.640;8.894;2023-07-24T10:00:06;4.33;;;3.23;;
3959;SDS011;1994;48.640;8.894;2023-07-24T10:02:33;4.63;;;3.70;;
3959;SDS011;1994;48.640;8.894;2023-07-24T10:04:59;6.00;;;3.47;;
3959;SDS011;1994;48.640;8.894;2023-07-24T10:07:26;4.10;;;3.47;;
3959;SDS011;1994;48.640;8.894;2023-07-24T10:09:52;4.03;;;3.63;;
3959;SDS011;1994;48.640;8.894;2023-07-24T10:12:19;14.93;;;4.03;;
3959;SDS011;1994;48.640;8.894;2023-07-24T10:14:47;3.83;;;3.53;;
3959;SDS011;1994;48.640;8.894;2023-07-24T10:17:14;4.80;;;4.00;;
3959;SDS011;1994;48.640;8.894;2023-07-24T10:19:40;3.50;;;3.20;;
3959;SDS011;1994;48.640;8.894;2023-07-24T10:22:16;7.30;;;3.80;;
3959;SDS011;1994;48.640;8.894;2023-07-24T10:24:44;6.90;;;3.87;;
3959;SDS011;1994;48.640;8.894;2023-07-24T10:27:11;4.90;;;3.90;;
3959;SDS011;1994;48.640;8.894;2023-07-24T10:29:37;4.77;;;4.33;;
3959;SDS011;1994;48.640;8.894;2023-07-24T10:32:04;5.67;;;3.67;;
3959;SDS011;1994;48.640;8.894;2023-07-24T10:35:07;6.20;;;4.10;;
3959;SDS011;1994;48.640;8.894;2023-07-24T10:37:34;10.63;;;4.37;;
3959;SDS011;1994;48.640;8.894;2023-07-24T10:40:02;4.93;;;4.53;;
3959;SDS011;1994;48.640;8.894;2023-07-24T10:42:29;7.33;;;4.37;;
3959;SDS011;1994;48.640;8.894;2023-07-24T10:45:07;6.90;;;4.53;;
3959;SDS011;1994;48.640;8.894;2023-07-24T10:47:34;7.70;;;4.00;;
3959;SDS011;1994;48.640;8.894;2023-07-24T10:50:00;4.87;;;4.00;;
3959;SDS011;1994;48.640;8.894;2023-07-24T10:52:29;6.73;;;4.80;;
3959;SDS011;1994;48.640;8.894;2023-07-24T10:55:04;6.17;;;4.60;;
3959;SDS011;1994;48.640;8.894;2023-07-24T10:57:31;5.73;;;4.60;;
3959;SDS011;1994;48.640;8.894;2023-07-24T10:59:57;4.80;;;4.07;;
3959;SDS011;1994;48.640;8.894;2023-07-24T11:02:24;5.07;;;3.53;;
3959;SDS011;1994;48.640;8.894;2023-07-24T11:04:50;5.60;;;4.43;;
3959;SDS011;1994;48.640;8.894;2023-07-24T11:07:16;5.87;;;4.97;;
3959;SDS011;1994;48.640;8.894;2023-07-24T11:09:42;4.40;;;3.97;;
3959;SDS011;1994;48.640;8.894;2023-07-24T11:12:14;9.73;;;4.57;;
3959;SDS011;1994;48.640;8.894;2023-07-24T11:14:51;4.37;;;3.63;;
3959;SDS011;1994;48.640;8.894;2023-07-24T11:17:20;5.30;;;4.17;;
3959;SDS011;1994;48.640;8.894;2023-07-24T11:19:47;5.70;;;4.27;;
3959;SDS011;1994;48.640;8.894;2023-07-24T11:22:13;4.73;;;3.87;;
3959;SDS011;1994;48.640;8.894;2023-07-24T11:24:43;6.80;;;4.57;;
3959;SDS011;1994;48.640;8.894;2023-07-24T11:27:12;4.93;;;4.47;;
3959;SDS011;1994;48.640;8.894;2023-07-24T11:29:40;5.27;;;4.00;;
3959;SDS011;1994;48.640;8.894;2023-07-24T11:32:06;5.23;;;4.47;;
3959;SDS011;1994;48.640;8.894;2023-07-24T11:34:32;4.63;;;4.23;;
3959;SDS011;1994;48.640;8.894;2023-07-24T11:36:59;6.20;;;4.13;;
3959;SDS011;1994;48.640;8.894;2023-07-24T11:39:26;5.80;;;4.67;;
3959;SDS011;1994;48.640;8.894;2023-07-24T11:41:51;6.63;;;4.10;;
3959;SDS011;1994;48.640;8.894;2023-07-24T11:44:24;5.10;;;4.13;;
3959;SDS011;1994;48.640;8.894;2023-07-24T11:46:51;5.00;;;4.50;;
3959;SDS011;1994;48.640;8.894;2023-07-24T11:49:21;5.67;;;4.63;;
3959;SDS011;1994;48.640;8.894;2023-07-24T11:51:47;7.63;;;4.47;;
3959;SDS011;1994;48.640;8.894;2023-07-24T11:54:14;4.70;;;3.87;;
3959;SDS011;1994;48.640;8.894;2023-07-24T11:56:40;4.23;;;3.83;;
3959;SDS011;1994;48.640;8.894;2023-07-24T11:59:09;5.83;;;4.10;;
3959;SDS011;1994;48.640;8.894;2023-07-24T12:01:36;5.07;;;4.57;;
3959;SDS011;1994;48.640;8.894;2023-07-24T12:04:03;4.40;;;3.87;;
3959;SDS011;1994;48.640;8.894;2023-07-24T12:06:30;4.40;;;4.00;;
3959;SDS011;1994;48.640;8.894;2023-07-24T12:09:03;5.83;;;4.20;;
3959;SDS011;1994;48.640;8.894;2023-07-24T12:11:30;3.93;;;3.63;;
3959;SDS011;1994;48.640;8.894;2023-07-24T12:13:57;6.03;;;3.90;;
3959;SDS011;1994;48.640;8.894;2023-07-24T12:16:23;5.00;;;4.10;;
3959;SDS011;1994;48.640;8.894;2023-07-24T12:18:49;6.00;;;5.03;;
3959;SDS011;1994;48.640;8.894;2023-07-24T12:21:15;8.20;;;5.07;;
3959;SDS011;1994;48.640;8.894;2023-07-24T12:23:40;4.60;;;3.70;;
3959;SDS011;1994;48.640;8.894;2023-07-24T12:26:06;3.50;;;3.20;;
3959;SDS011;1994;48.640;8.894;2023-07-24T12:28:32;5.43;;;3.83;;
3959;SDS011;1994;48.640;8.894;2023-07-24T12:30:58;4.40;;;4.00;;
3959;SDS011;1994;48.640;8.894;2023-07-24T12:33:24;4.40;;;3.87;;
3959;SDS011;1994;48.640;8.894;2023-07-24T12:35:50;3.53;;;3.23;;
3959;SDS011;1994;48.640;8.894;2023-07-24T12:38:16;6.50;;;3.80;;
3959;SDS011;1994;48.640;8.894;2023-07-24T12:40:42;4.40;;;3.93;;
3959;SDS011;1994;48.640;8.894;2023-07-24T12:43:09;3.83;;;3.43;;
3959;SDS011;1994;48.640;8.894;2023-07-24T12:45:35;4.60;;;3.27;;
3959;SDS011;1994;48.640;8.894;2023-07-24T12:48:00;3.97;;;3.10;;
3959;SDS011;1994;48.640;8.894;2023-07-24T12:50:26;3.43;;;3.00;;
3959;SDS011;1994;48.640;8.894;2023-07-24T12:52:52;2.67;;;2.47;;
3959;SDS011;1994;48.640;8.894;2023-07-24T12:55:18;3.33;;;3.03;;
3959;SDS011;1994;48.640;8.894;2023-07-24T12:57:43;3.73;;;3.43;;
3959;SDS011;1994;48.640;8.894;2023-07-24T13:00:09;2.60;;;2.40;;
3959;SDS011;1994;48.640;8.894;2023-07-24T13:02:35;3.97;;;3.57;;
3959;SDS011;1994;48.640;8.894;2023-07-24T13:05:01;3.57;;;3.27;;
3959;SDS011;1994;48.640;8.894;2023-07-24T13:07:27;3.03;;;2.83;;
3959;SDS011;1994;48.640;8.894;2023-07-24T13:09:54;3.10;;;2.90;;
3959;SDS011;1994;48.640;8.894;2023-07-24T13:12:20;3.90;;;3.57;;
3959;SDS011;1994;48.640;8.894;2023-07-24T13:14:46;4.67;;;3.90;;
3959;SDS011;1994;48.640;8.894;2023-07-24T13:17:11;3.33;;;3.03;;
3959;SDS011;1994;48.640;8.894;2023-07-24T13:19:37;6.50;;;3.03;;
3959;SDS011;1994;48.640;8.894;2023-07-24T13:22:03;3.03;;;2.83;;
3959;SDS011;1994;48.640;8.894;2023-07-24T13:24:29;3.90;;;3.47;;
3959;SDS011;1994;48.640;8.894;2023-07-24T13:26:55;3.10;;;2.83;;
3959;SDS011;1994;48.640;8.894;2023-07-24T13:29:20;3.07;;;2.87;;
3959;SDS011;1994;48.640;8.894;2023-07-24T13:31:46;3.70;;;3.40;;
3959;SDS011;1994;48.640;8.894;2023-07-24T13:34:14;3.13;;;2.83;;
3959;SDS011;1994;48.640;8.894;2023-07-24T13:36:42;3.40;;;2.63;;
3959;SDS011;1994;48.640;8.894;2023-07-24T13:39:08;3.53;;;3.23;;
3959;SDS011;1994;48.640;8.894;2023-07-24T13:41:34;3.10;;;2.80;;
3959;SDS011;1994;48.640;8.894;2023-07-24T13:44:01;3.00;;;2.73;;
3959;SDS011;1994;48.640;8.894;2023-07-24T13:46:26;5.87;;;2.70;;
3959;SDS011;1994;48.640;8.894;2023-07-24T13:48:52;3.80;;;2.50;;
3959;SDS011;1994;48.640;8.894;2023-07-24T13:51:18;3.23;;;2.97;;
3959;SDS011;1994;48.640;8.894;2023-07-24T13:53:44;4.30;;;3.03;;
3959;SDS011;1994;48.640;8.894;2023-07-24T13:56:12;3.10;;;2.70;;
3959;SDS011;1994;48.640;8.894;2023-07-24T13:58:39;3.40;;;2.97;;
3959;SDS011;1994;48.640;8.894;2023-07-24T14:01:04;2.47;;;2.27;;
3959;SDS011;1994;48.640;8.894;2023-07-24T14:03:32;3.20;;;3.00;;
3959;SDS011;1994;48.640;8.894;2023-07-24T14:05:58;3.50;;;2.53;;
3959;SDS011;1994;48.640;8.894;2023-07-24T14:08:24;2.87;;;2.33;;
3959;SDS011;1994;48.640;8.894;2023-07-24T14:10:50;9.07;;;2.70;;
3959;SDS011;1994;48.640;8.894;2023-07-24T14:13:16;4.90;;;2.30;;
3959;SDS011;1994;48.640;8.894;2023-07-24T14:15:42;2.67;;;2.47;;
3959;SDS011;1994;48.640;8.894;2023-07-24T14:18:08;3.10;;;2.83;;
3959;SDS011;1994;48.640;8.894;2023-07-24T14:20:33;2.80;;;2.33;;
3959;SDS011;1994;48.640;8.894;2023-07-24T14:22:59;2.67;;;2.47;;
3959;SDS011;1994;48.640;8.894;2023-07-24T14:25:25;3.10;;;2.50;;
3959;SDS011;1994;48.640;8.894;2023-07-24T14:27:50;2.80;;;2.60;;
3959;SDS011;1994;48.640;8.894;2023-07-24T14:30:16;3.30;;;3.00;;
3959;SDS011;1994;48.640;8.894;2023-07-24T14:32:42;2.53;;;2.33;;
3959;SDS011;1994;48.640;8.894;2023-07-24T14:35:08;5.60;;;2.53;;
3959;SDS011;1994;48.640;8.894;2023-07-24T14:37:33;4.80;;;3.10;;
3959;SDS011;1994;48.640;8.894;2023-07-24T14:39:59;2.70;;;2.50;;
3959;SDS011;1994;48.640;8.894;2023-07-24T14:42:25;2.83;;;2.30;;
3959;SDS011;1994;48.640;8.894;2023-07-24T14:44:51;3.93;;;3.13;;
3959;SDS011;1994;48.640;8.894;2023-07-24T14:47:16;2.60;;;2.40;;
3959;SDS011;1994;48.640;8.894;2023-07-24T14:49:42;2.37;;;2.27;;
3959;SDS011;1994;48.640;8.894;2023-07-24T14:52:08;2.30;;;2.20;;
3959;SDS011;1994;48.640;8.894;2023-07-24T14:54:34;2.80;;;2.60;;
3959;SDS011;1994;48.640;8.894;2023-07-24T14:56:59;3.10;;;2.80;;
3959;SDS011;1994;48.640;8.894;2023-07-24T14:59:27;4.43;;;2.80;;
3959;SDS011;1994;48.640;8.894;2023-07-24T15:01:53;2.87;;;2.63;;
3959;SDS011;1994;48.640;8.894;2023-07-24T15:04:19;3.53;;;2.90;;
3959;SDS011;1994;48.640;8.894;2023-07-24T15:06:44;2.80;;;2.60;;
3959;SDS011;1994;48.640;8.894;2023-07-24T15:09:10;3.00;;;2.73;;
3959;SDS011;1994;48.640;8.894;2023-07-24T15:11:36;2.90;;;2.70;;
3959;SDS011;1994;48.640;8.894;2023-07-24T15:14:02;3.53;;;3.30;;
3959;SDS011;1994;48.640;8.894;2023-07-24T15:16:27;3.13;;;2.93;;
3959;SDS011;1994;48.640;8.894;2023-07-24T15:18:53;3.30;;;3.00;;
3959;SDS011;1994;48.640;8.894;2023-07-24T15:21:19;4.60;;;2.37;;